Date,TemperatureHighF,TemperatureAvgF,TemperatureLowF,DewpointHighF,DewpointAvgF,DewpointLowF,HumidityHigh,HumidityAvg,HumidityLow,PressureMaxIn,PressureMinIn,WindSpeedMaxMPH,WindSpeedAvgMPH,GustSpeedMaxMPH,PrecipitationSumIn
2013-1-1,21,8,-9,19,5,-13,92,85,76,30.26,30.00,7,2,12,0.00
2013-1-2,25,20,15,22,17,12,93,89,81,30.12,29.93,8,3,13,0.00
2013-1-3,18,13,6,15,8,2,90,83,72,30.26,30.03,11,4,17,0.00
2013-1-4,31,23,13,20,16,9,90,78,61,30.12,29.99,9,2,17,0.02
2013-1-5,23,16,5,16,12,2,92,85,72,30.07,29.87,8,2,12,0.00
2013-1-6,23,16,12,17,12,7,91,84,71,30.21,29.92,6,3,12,0.00
2013-1-7,39,29,18,28,23,15,88,78,64,29.97,29.84,10,4,17,0.03
2013-1-8,33,26,15,28,23,13,94,88,79,29.97,29.73,8,2,14,0.01
2013-1-9,34,29,23,30,23,18,88,78,65,30.33,29.89,17,5,26,0.00
2013-1-10,42,35,30,32,28,25,97,77,52,30.23,29.71,11,5,20,0.22
2013-1-11,36,35,33,36,35,32,100,100,97,29.71,29.38,7,2,12,0.26
2013-1-12,34,12,3,34,7,-2,100,82,72,30.07,29.39,14,6,24,0.01
2013-1-13,10,4,-1,4,-1,-5,87,80,73,30.21,30.06,7,3,13,0.00
2013-1-14,13,7,-1,7,2,-4,87,80,68,30.38,30.21,8,2,12,0.00
2013-1-15,24,16,6,17,11,4,89,78,62,30.23,29.74,10,4,18,0.00
2013-1-16,34,24,7,32,16,-3,95,73,48,30.26,29.64,12,6,20,0.00
2013-1-17,20,12,4,11,4,-5,81,69,59,30.37,30.24,8,2,13,0.00
2013-1-18,38,27,14,30,22,10,92,84,70,30.24,29.73,8,2,13,0.05
2013-1-19,38,21,0,32,16,-6,94,81,67,30.26,29.71,22,7,37,0.01
2013-1-20,6,1,-4,2,-6,-11,81,73,67,30.39,30.25,13,5,24,0.00
2013-1-21,-4,-8,-12,-11,-14,-18,79,73,65,30.33,30.25,10,4,15,0.00
2013-1-22,4,-4,-14,-2,-10,-18,81,75,64,30.35,30.20,6,2,9,0.00
2013-1-23,13,8,4,6,2,-5,85,76,58,30.32,30.13,14,4,26,0.00
2013-1-24,13,9,6,4,2,-2,73,71,68,30.27,30.10,6,3,16,0.00
2013-1-25,16,10,1,12,4,-5,84,73,65,30.31,29.92,14,6,23,0.00
2013-1-26,21,10,-2,14,4,-6,84,76,66,30.32,30.08,8,2,11,0.00
2013-1-27,32,26,19,29,22,13,96,84,72,30.08,29.82,4,1,9,0.01
2013-1-28,35,32,29,34,31,28,100,97,95,29.89,29.68,5,1,9,0.06
2013-1-29,35,31,26,32,29,21,100,90,81,29.83,29.58,11,4,18,0.08
2013-1-30,26,15,6,21,10,1,86,80,75,29.81,29.73,12,7,20,0.00
2013-1-31,6,0,-9,1,-7,-15,80,74,66,30.25,29.80,13,7,22,0.00
2013-2-1,1,-6,-14,-3,-11,-19,84,77,62,30.27,30.06,6,2,13,0.00
2013-2-2,9,5,-2,5,0,-6,86,80,67,30.17,29.98,7,2,10,0.00
2013-2-3,13,7,3,7,3,-1,86,82,68,30.08,29.98,10,5,18,0.00
2013-2-4,17,10,2,14,3,-3,90,75,61,30.07,29.70,8,2,13,0.00
2013-2-5,28,21,9,25,16,6,93,81,61,30.07,29.64,11,4,17,0.00
2013-2-6,25,17,9,20,13,6,89,85,80,30.08,29.92,6,2,11,0.00
2013-2-7,26,24,22,24,22,17,94,91,81,30.27,30.04,10,4,15,0.00
2013-2-11,24,24,23,20,20,20,87,86,86,29.92,29.92,12,10,16,0.00
2013-2-12,32,27,23,23,21,19,87,79,68,29.86,29.81,6,3,10,0.04
2013-2-13,40,30,22,32,26,19,97,86,69,29.81,29.62,7,2,12,0.14
2013-2-14,28,21,10,21,11,2,89,65,45,30.20,29.88,12,5,20,0.17
2013-2-15,15,8,3,6,4,0,87,81,68,30.32,30.19,7,3,12,0.00
2013-2-17,31,29,27,24,24,21,85,81,70,29.83,29.60,12,5,20,0.00
2013-2-18,33,20,5,31,16,0,94,83,73,29.89,29.53,16,6,27,0.00
2013-2-19,6,2,-3,1,-5,-9,82,72,61,30.38,29.89,13,7,22,0.00
2013-2-20,16,4,-6,3,-3,-10,84,72,55,30.44,30.38,4,1,9,0.00
2013-2-21,21,14,2,17,7,-2,86,72,59,30.43,30.12,7,2,12,0.00
2013-2-22,27,24,20,23,20,17,92,87,78,30.12,29.88,7,2,12,0.00
2013-2-23,33,26,19,25,21,16,93,83,66,29.96,29.86,6,2,9,0.10
2013-2-24,33,22,10,23,16,6,93,80,65,30.10,29.96,6,1,10,0.07
2013-2-25,30,23,17,25,20,14,95,87,80,30.12,30.05,4,1,6,0.01
2013-2-26,34,26,18,27,22,16,95,86,74,30.08,29.95,6,2,13,0.02
2013-2-27,43,32,24,27,23,18,81,70,48,30.10,29.95,11,4,17,0.07
2013-2-28,30,27,20,24,21,15,83,76,71,30.26,30.10,8,3,14,0.00
2013-3-1,29,23,18,19,16,6,86,73,58,30.37,30.26,8,2,12,0.00
2013-3-2,30,20,7,16,9,2,84,65,43,30.36,30.14,7,1,10,0.00
2013-3-3,35,27,19,17,14,11,76,59,42,30.14,29.97,6,2,15,0.00
2013-3-4,26,24,22,22,20,13,93,84,56,30.03,29.93,6,2,14,0.01
2013-3-5,31,26,24,26,23,22,94,87,74,30.33,29.98,8,2,13,0.00
2013-3-6,28,22,11,22,18,8,92,82,71,30.42,30.33,6,2,8,0.01
2013-3-7,34,21,5,22,14,2,92,77,60,30.36,30.25,7,2,15,0.04
2013-3-8,37,28,16,29,23,14,92,81,66,30.29,30.09,6,2,10,0.13
2013-3-9,36,34,32,36,33,29,100,97,88,30.09,29.73,9,2,16,0.83
2013-3-10,34,30,26,32,26,21,93,85,80,30.06,29.85,14,7,24,0.04
2013-3-11,31,26,22,22,20,16,87,79,66,29.98,29.80,10,4,16,0.03
2013-3-12,30,24,18,20,16,14,85,74,53,30.24,29.85,14,6,22,0.00
2013-3-13,32,21,11,20,15,9,90,77,53,30.37,30.21,5,2,10,0.05
2013-3-14,41,31,24,30,25,19,92,80,64,30.21,30.03,5,2,9,0.17
2013-3-15,33,30,23,31,28,20,95,90,83,30.03,29.88,7,3,13,0.07
2013-3-16,23,18,7,20,11,0,91,75,60,30.26,29.97,8,4,15,0.00
2013-3-17,26,15,1,20,7,-3,82,70,57,30.27,29.79,9,3,17,0.00
2013-3-18,31,21,11,30,17,6,96,85,75,29.86,29.58,17,8,31,0.00
2013-3-19,22,12,5,9,3,0,81,67,48,30.21,29.86,14,8,24,0.00
2013-3-20,21,12,4,6,2,-3,75,63,50,30.24,30.13,15,7,25,0.00
2013-3-21,26,15,2,12,6,-2,85,68,52,30.16,30.06,5,2,8,0.00
2013-3-22,36,23,10,18,13,5,84,65,45,30.12,30.05,5,1,8,0.08
2013-3-23,38,27,16,24,18,10,82,68,46,30.18,30.09,7,2,11,0.04
2013-3-24,35,30,25,27,24,21,88,79,64,30.13,30.04,9,3,14,0.02
2013-3-25,38,31,24,25,20,18,80,66,47,30.27,30.10,10,5,17,0.00
2013-3-26,40,29,18,24,19,14,85,68,44,30.31,30.27,6,2,9,0.00
2013-3-27,42,32,18,23,19,14,85,62,41,30.35,30.31,6,1,12,0.00
2013-3-28,44,33,21,30,24,16,84,69,50,30.34,30.27,9,1,15,0.00
2013-3-29,50,40,32,38,33,27,90,78,59,30.28,30.04,7,2,10,0.00
2013-3-30,48,41,33,42,38,31,97,87,74,30.04,29.89,9,4,15,0.26
2013-3-31,36,32,20,32,24,13,94,74,54,30.15,29.83,14,7,27,0.00
2013-4-1,33,24,15,20,15,10,81,70,54,30.29,30.15,11,5,17,0.00
2013-4-2,37,27,15,20,16,12,90,67,43,30.36,30.27,7,2,12,0.00
2013-4-3,46,34,17,36,25,14,89,71,52,30.37,29.99,15,5,24,0.00
2013-4-4,46,39,30,35,29,23,87,68,48,30.22,29.99,13,5,22,0.00
2013-4-5,40,32,23,32,25,18,91,78,47,30.26,29.89,7,2,14,0.01
2013-4-6,46,39,34,37,34,32,91,82,68,29.89,29.61,7,3,14,0.02
2013-4-7,47,40,35,40,34,30,96,80,63,29.96,29.79,7,2,12,0.21
2013-4-8,43,39,36,40,37,34,97,93,85,30.12,29.75,8,3,15,0.04
2013-4-9,38,34,28,34,26,22,90,72,59,30.23,30.06,14,5,25,0.00
2013-4-10,40,36,33,27,23,18,71,58,44,30.23,29.96,12,5,23,0.00
2013-4-11,36,32,28,31,28,19,96,86,52,29.99,29.76,11,5,20,0.03
2013-4-12,38,31,27,31,28,26,95,88,70,29.88,29.75,9,3,16,0.25
2013-4-13,37,32,25,29,26,21,94,80,61,29.97,29.86,8,2,16,0.18
2013-4-14,33,31,26,33,28,22,97,88,75,29.96,29.49,11,3,22,0.05
2013-4-15,38,35,32,34,31,29,100,87,79,30.00,29.47,11,4,21,0.16
2013-4-16,43,36,31,31,28,26,87,73,58,30.35,29.99,12,4,18,0.04
2013-4-17,39,36,32,33,30,26,96,79,73,30.35,30.03,9,2,14,0.01
2013-4-18,34,32,31,32,30,30,96,94,89,30.04,29.65,13,6,24,0.08
2013-4-19,40,34,28,30,25,18,96,73,42,30.04,29.62,15,7,26,0.29
2013-4-20,40,31,21,22,17,12,83,59,32,30.29,30.04,8,2,15,0.09
2013-4-21,44,38,31,42,34,19,97,87,59,30.30,30.02,12,4,22,0.14
2013-4-22,39,34,31,34,30,27,95,85,64,30.28,30.17,10,3,18,0.00
2013-4-23,40,33,24,29,23,20,93,68,48,30.23,30.09,10,4,17,0.29
2013-4-24,47,36,26,36,30,22,94,77,52,30.09,29.93,12,4,20,0.00
2013-4-25,50,39,29,35,30,26,93,74,45,30.21,30.03,10,3,15,0.01
2013-4-26,70,54,38,45,37,32,85,56,29,30.17,29.95,6,2,10,0.02
2013-4-27,75,59,40,43,36,32,74,45,24,30.17,29.88,7,2,12,0.00
2013-4-28,76,61,50,52,47,43,85,63,35,29.88,29.73,10,4,21,0.00
2013-4-29,76,59,42,49,38,28,78,52,22,29.90,29.56,8,2,16,0.00
2013-4-30,67,60,50,58,45,32,90,60,28,30.04,29.39,19,6,26,0.01
2013-5-1,50,41,36,36,28,24,71,61,49,30.54,30.03,12,5,19,0.00
2013-5-2,50,38,32,29,26,24,77,62,41,30.60,30.48,11,5,20,0.00
2013-5-3,46,37,30,34,27,23,89,67,47,30.48,30.21,10,4,17,0.00
2013-5-4,41,38,34,39,36,32,95,93,89,30.23,30.18,10,4,17,0.27
2013-5-5,64,49,38,51,43,36,95,81,60,30.22,30.13,6,2,10,0.00
2013-5-6,73,59,42,52,47,40,94,68,46,30.17,30.06,5,1,8,0.00
2013-5-7,78,65,51,52,48,43,88,57,33,30.11,29.98,8,2,12,0.00
2013-5-8,69,61,57,57,53,45,93,76,54,30.07,29.99,6,2,12,0.17
2013-5-9,57,53,44,54,48,36,96,85,69,30.19,30.03,10,3,18,0.16
2013-5-10,67,52,34,43,31,26,82,50,21,30.20,29.92,13,3,24,0.00
2013-5-11,52,46,39,41,28,21,79,51,32,30.23,30.00,16,7,26,0.00
2013-5-12,60,47,33,31,23,16,68,41,19,30.26,30.13,11,3,16,0.00
2013-5-13,81,59,43,51,36,21,63,43,31,30.13,29.68,10,3,23,0.01
2013-5-14,96,72,52,54,46,30,85,45,13,29.78,29.56,18,4,28,0.00
2013-5-15,83,69,53,48,44,39,74,44,22,29.96,29.78,15,3,28,0.00
2013-5-16,83,70,56,47,42,34,60,38,22,29.98,29.86,8,3,16,0.00
2013-5-17,68,60,56,56,47,31,95,67,28,30.02,29.93,6,2,14,0.18
2013-5-18,77,65,55,69,62,54,100,91,75,29.99,29.82,8,2,18,1.58
2013-5-19,81,68,63,70,64,62,100,89,63,29.83,29.61,9,2,18,0.44
2013-5-20,70,62,56,64,59,55,100,91,74,29.63,29.54,11,2,20,0.43
2013-5-21,56,50,46,54,48,45,97,96,95,29.82,29.59,8,3,15,0.56
2013-5-22,52,48,44,49,46,43,97,94,85,30.10,29.79,10,4,18,0.25
2013-5-23,66,54,44,44,38,31,92,59,29,30.36,30.10,12,3,17,0.00
2013-5-24,68,54,42,52,42,34,97,67,31,30.40,30.23,10,2,20,0.63
2013-5-25,64,57,52,53,51,48,97,82,64,30.27,30.22,10,3,24,0.01
2013-5-26,61,56,51,49,45,40,81,68,49,30.25,30.07,7,3,17,0.00
2013-5-27,63,58,54,55,51,46,89,79,69,30.10,29.90,5,2,14,0.00
2013-5-28,63,58,53,57,54,52,97,90,79,29.90,29.79,4,1,12,0.00
2013-5-29,75,65,54,68,61,53,100,88,70,29.87,29.68,9,2,14,0.21
2013-5-30,74,67,63,67,64,62,100,91,71,29.70,29.56,9,3,22,0.30
2013-5-31,68,63,57,64,57,54,100,81,61,29.61,29.53,10,3,18,0.25
2013-6-1,58,54,52,54,53,51,100,95,88,29.64,29.61,1,0,2,0.01
2013-6-2,69,58,46,46,43,40,84,60,37,30.15,30.05,9,2,14,0.00
2013-6-3,68,61,47,52,45,40,85,57,37,30.11,29.84,9,1,16,0.01
2013-6-4,59,55,51,56,51,45,100,87,61,30.12,30.01,7,2,14,1.41
2013-6-5,62,55,51,58,54,50,100,95,85,30.08,30.02,6,2,15,0.23
2013-6-6,58,53,49,52,50,48,97,89,77,30.11,30.05,6,2,12,0.00
2013-6-7,64,57,49,54,51,47,95,82,64,30.11,29.97,4,1,7,0.00
2013-6-8,72,61,49,57,54,48,97,78,54,29.98,29.93,7,1,12,0.00
2013-6-9,62,58,56,58,56,55,97,93,80,29.94,29.85,8,2,16,0.41
2013-6-10,74,64,58,63,59,57,100,85,62,29.93,29.87,5,1,8,0.00
2013-6-11,77,67,59,66,62,53,100,84,58,29.97,29.86,6,1,10,0.01
2013-6-12,73,65,58,64,57,52,91,76,61,30.04,29.86,6,2,13,0.12
2013-6-13,80,68,56,58,54,51,84,64,41,30.17,30.04,6,2,11,0.00
2013-6-14,80,69,58,64,59,52,84,71,53,30.12,29.90,7,2,20,0.00
2013-6-15,83,72,63,67,59,48,95,67,30,29.97,29.90,8,2,13,0.00
2013-6-16,88,74,63,60,52,45,72,49,24,29.97,29.89,12,4,20,0.00
2013-6-17,82,71,60,60,56,52,83,61,40,30.09,29.92,11,3,16,0.00
2013-6-18,79,65,51,59,52,42,78,65,45,30.15,30.06,6,2,10,0.00
2013-6-19,86,72,58,65,60,55,93,68,45,30.08,29.97,9,2,17,0.00
2013-6-20,90,76,69,70,66,60,95,72,48,30.04,29.88,8,3,16,0.42
2013-6-21,82,72,64,68,65,61,97,81,61,30.17,29.75,20,2,35,2.07
2013-6-22,80,70,65,69,66,63,97,89,67,30.03,29.87,10,1,17,0.04
2013-6-23,82,73,64,69,65,61,100,80,55,29.92,29.59,11,3,18,1.44
2013-6-24,83,73,62,73,66,61,96,80,62,29.95,29.84,5,1,9,0.00
2013-6-25,88,76,65,72,68,63,96,79,54,29.87,29.75,7,2,12,0.00
2013-6-26,87,78,71,72,69,64,96,76,53,29.87,29.72,13,3,18,0.00
2013-6-27,86,77,68,68,62,54,92,62,38,29.90,29.85,14,5,24,0.00
2013-6-28,78,71,66,64,61,58,80,70,55,29.90,29.86,13,6,24,0.00
2013-6-29,79,69,62,64,59,52,96,72,39,30.07,29.85,10,4,21,0.16
2013-6-30,84,70,58,61,56,52,89,63,34,30.19,30.07,7,2,12,0.00
2013-7-1,86,74,61,62,58,53,86,60,34,30.26,30.19,7,1,12,0.00
2013-7-2,87,72,59,62,56,52,89,60,34,30.22,30.11,5,1,9,0.00
2013-7-3,86,73,60,64,59,54,93,65,34,30.13,29.99,5,1,9,0.00
2013-7-4,89,76,62,66,60,56,84,60,37,30.01,29.88,7,2,15,0.00
2013-7-5,89,80,71,70,64,58,68,59,50,29.91,29.82,9,4,17,0.00
2013-7-6,80,75,69,72,68,63,92,78,62,29.91,29.85,6,2,12,0.02
2013-7-7,93,79,70,75,70,63,95,76,51,29.97,29.86,6,1,13,0.00
2013-7-8,88,75,65,71,67,64,100,78,48,30.07,29.98,6,1,10,0.00
2013-7-9,85,74,67,73,68,60,100,82,58,30.02,29.78,14,4,22,0.48
2013-7-10,81,70,59,60,58,55,90,66,41,30.12,30.02,8,4,17,0.00
2013-7-11,85,73,59,63,61,57,96,68,45,30.16,30.00,7,2,17,0.00
2013-7-12,89,79,69,70,64,60,75,62,52,30.02,29.89,10,4,21,0.00
2013-7-13,79,72,69,70,67,63,95,86,64,30.10,29.94,8,3,15,0.25
2013-7-14,76,71,68,70,65,60,95,84,73,30.25,30.08,6,2,12,0.02
2013-7-15,88,76,66,71,68,65,97,77,52,30.27,30.19,6,2,10,0.01
2013-7-16,93,82,73,73,70,66,90,71,45,30.25,30.19,8,3,15,0.00
2013-7-17,94,82,72,74,70,68,88,69,44,30.28,30.15,8,2,13,0.00
2013-7-18,93,84,74,74,72,69,91,69,48,30.15,29.79,12,5,21,0.00
2013-7-19,85,78,64,73,64,58,94,66,44,29.99,29.79,12,5,20,0.10
2013-7-20,79,69,64,63,60,56,95,75,51,30.03,29.94,5,1,9,0.02
2013-7-21,85,71,59,69,62,53,89,73,58,30.01,29.83,7,1,12,0.00
2013-7-22,84,74,65,71,64,57,94,74,49,29.95,29.74,11,4,20,0.00
2013-7-23,79,67,56,58,55,51,92,67,39,30.08,29.95,8,2,12,0.00
2013-7-24,81,70,61,62,57,53,91,68,39,30.12,30.00,9,1,17,0.16
2013-7-25,78,69,62,68,63,59,97,82,59,30.06,29.96,8,2,13,0.09
2013-7-26,67,61,52,59,53,48,90,76,58,30.17,29.98,13,5,21,0.00
2013-7-27,69,58,49,50,47,45,89,68,46,30.17,30.01,13,5,21,0.00
2013-7-28,74,61,50,56,51,46,94,69,48,30.12,30.04,8,2,13,0.00
2013-7-29,78,65,55,61,57,53,96,76,45,30.17,30.11,8,2,13,0.04
2013-7-30,62,61,60,60,60,59,100,94,89,30.14,30.12,4,1,8,0.05
2013-7-31,80,71,61,65,58,51,97,68,39,30.15,30.06,12,4,21,0.01
2013-8-1,84,72,57,59,55,51,84,58,40,30.09,29.94,10,2,14,0.00
2013-8-2,82,68,58,58,54,50,85,62,39,30.11,29.94,7,2,12,0.00
2013-8-3,78,64,54,56,52,46,90,68,33,30.27,30.09,8,1,17,0.00
2013-8-4,77,65,53,57,53,50,90,68,43,30.29,30.03,7,1,12,0.00
2013-8-5,82,69,60,68,62,57,97,80,55,30.07,29.87,9,3,15,0.30
2013-8-6,83,66,57,69,61,55,96,85,58,29.92,29.76,7,2,13,0.28
2013-8-7,77,66,56,62,56,51,96,73,42,30.07,29.88,6,2,12,0.01
2013-8-8,78,67,57,63,59,55,95,78,53,30.11,30.04,8,1,12,0.00
2013-8-9,74,65,56,59,54,50,93,70,45,30.19,30.06,10,3,21,0.00
2013-8-10,76,65,55,59,55,53,92,71,46,30.24,30.13,4,1,9,0.00
2013-8-11,82,70,60,63,59,56,90,71,44,30.14,30.06,6,1,9,0.00
2013-8-12,81,68,58,60,56,53,89,67,40,30.15,30.08,10,2,15,0.00
2013-8-13,78,65,52,57,51,46,94,66,35,30.26,30.15,7,1,12,0.00
2013-8-14,79,65,53,58,53,50,93,68,39,30.24,30.14,5,1,9,0.00
2013-8-15,82,67,56,61,57,53,93,72,40,30.17,30.12,5,1,8,0.00
2013-8-16,79,69,59,60,58,55,91,70,46,30.23,30.17,7,2,12,0.00
2013-8-17,82,70,59,62,59,56,92,71,48,30.22,30.12,9,3,16,0.00
2013-8-18,81,71,61,63,60,57,88,68,49,30.15,30.01,11,4,20,0.00
2013-8-19,88,76,67,72,67,61,84,73,57,30.05,29.93,7,3,15,0.00
2013-8-20,90,79,70,76,72,68,95,81,60,29.94,29.89,8,2,13,0.00
2013-8-21,92,79,71,75,68,58,97,73,37,30.08,29.86,8,2,14,0.00
2013-8-22,85,73,61,59,53,48,80,52,30,30.20,30.08,6,2,10,0.00
2013-8-23,87,73,57,69,60,51,86,66,44,30.19,30.06,7,2,12,0.00
2013-8-24,91,79,70,74,71,67,92,77,54,30.07,29.93,11,4,24,0.00
2013-8-25,93,83,74,78,75,72,93,78,59,30.03,29.96,9,4,20,0.19
2013-8-26,95,85,76,78,76,73,92,77,55,30.01,29.87,6,2,12,0.00
2013-8-27,92,81,73,77,74,69,96,79,53,29.99,29.83,6,2,12,0.00
2013-8-28,87,77,69,73,70,66,96,79,59,30.08,29.98,4,0,7,0.00
2013-8-29,91,81,72,77,72,67,97,76,53,30.05,29.88,9,2,17,0.00
2013-8-30,85,75,69,72,67,63,94,76,54,30.02,29.89,9,2,14,0.00
2013-8-31,90,73,63,70,65,61,95,78,47,29.96,29.78,22,2,32,0.23
2013-9-1,70,66,56,65,59,51,91,79,64,30.06,29.82,11,4,18,0.00
2013-9-2,71,59,52,57,52,49,94,80,52,30.16,30.06,6,1,10,0.01
2013-9-3,81,65,52,62,57,51,97,78,46,30.13,30.03,5,2,10,0.01
2013-9-4,86,72,62,65,62,57,93,73,45,30.21,30.06,5,1,9,0.00
2013-9-5,86,72,59,68,60,55,88,70,43,30.27,30.12,7,2,12,0.00
2013-9-6,92,79,69,73,69,67,94,73,48,30.12,29.90,8,2,16,0.00
2013-9-7,92,78,69,72,68,59,93,73,47,30.10,29.92,9,2,14,0.00
2013-9-8,69,62,59,61,57,53,93,84,69,30.11,29.92,7,2,13,0.02
2013-9-9,86,71,63,76,68,60,100,90,67,29.93,29.70,9,2,15,0.08
2013-9-10,83,72,65,68,64,59,96,79,46,30.03,29.82,12,3,20,0.02
2013-9-11,84,72,63,63,57,50,93,63,34,30.15,30.03,11,4,16,0.00
2013-9-12,74,63,54,56,50,46,88,65,41,30.28,30.15,10,3,20,0.00
2013-9-13,72,59,46,50,47,44,94,67,40,30.32,30.10,6,2,9,0.00
2013-9-14,68,58,54,58,52,47,100,82,57,30.11,29.94,7,2,13,1.45
2013-9-15,62,56,49,57,53,47,100,90,73,30.36,29.95,9,2,20,0.04
2013-9-16,68,54,42,48,45,39,100,74,43,30.44,30.25,7,1,12,0.01
2013-9-17,64,56,49,58,52,46,100,86,76,30.26,29.96,9,3,17,0.02
2013-9-18,73,65,58,70,65,57,100,98,88,29.97,29.73,8,2,15,0.03
2013-9-19,71,67,60,70,65,54,100,92,75,29.87,29.68,9,2,15,0.32
2013-9-20,63,56,50,55,52,48,95,86,64,29.99,29.85,12,5,21,0.05
2013-9-21,64,53,45,50,47,42,94,80,56,30.05,29.95,7,2,10,0.01
2013-9-22,74,59,46,59,52,45,95,78,57,29.99,29.85,7,2,15,0.01
2013-9-23,75,64,55,57,54,51,86,72,51,29.95,29.88,10,4,20,0.00
2013-9-24,73,61,52,58,54,50,95,80,55,30.01,29.95,7,1,16,0.00
2013-9-25,75,62,51,59,54,50,97,78,51,30.00,29.89,8,2,15,0.00
2013-9-26,81,67,54,63,58,52,93,76,53,29.93,29.82,11,3,21,0.00
2013-9-27,77,70,65,69,64,61,95,81,68,29.92,29.79,9,4,18,0.08
2013-9-28,73,60,49,64,55,46,95,83,66,29.95,29.65,12,5,20,0.34
2013-9-29,77,61,47,54,48,44,91,67,36,29.96,29.76,8,3,14,0.00
2013-9-30,79,67,56,58,52,48,76,61,44,29.76,29.62,11,3,22,0.00
2013-10-1,73,64,55,55,46,35,72,54,26,30.02,29.59,12,4,22,0.00
2013-10-2,75,58,47,52,46,39,93,70,29,30.07,29.91,9,2,16,0.24
2013-10-3,55,54,52,54,52,51,96,95,93,30.03,29.93,8,3,16,0.86
2013-10-4,57,54,52,54,52,51,97,94,87,30.06,29.89,10,4,20,0.21
2013-10-5,56,52,47,55,51,45,100,96,86,29.90,29.76,10,2,20,0.19
2013-10-6,54,50,48,50,47,43,97,91,79,29.90,29.74,9,3,18,0.06
2013-10-7,66,55,46,49,45,42,89,71,42,30.00,29.86,9,2,14,0.00
2013-10-8,78,62,50,53,48,44,85,62,38,29.96,29.76,14,4,23,0.00
2013-10-9,76,64,55,56,52,49,82,66,48,30.04,29.89,8,3,17,0.00
2013-10-10,78,64,53,58,53,48,85,68,49,30.04,29.86,10,3,20,0.00
2013-10-11,70,62,55,61,56,49,96,81,62,29.87,29.59,15,4,29,0.53
2013-10-12,55,50,46,49,44,40,93,82,75,30.20,29.70,12,5,22,0.06
2013-10-13,59,48,38,45,39,35,91,72,41,30.44,30.20,6,1,12,0.00
2013-10-14,49,46,43,46,42,38,95,86,76,30.42,29.95,7,2,17,0.72
2013-10-15,49,47,45,48,46,43,97,95,93,29.95,29.76,10,5,21,1.02
2013-10-16,55,46,40,43,40,36,96,82,51,30.00,29.89,8,2,12,0.01
2013-10-17,51,44,42,48,41,38,93,88,83,29.94,29.83,8,3,15,0.28
2013-10-18,53,43,36,40,36,32,93,78,46,30.02,29.85,12,3,20,0.06
2013-10-19,43,39,34,40,36,31,95,89,74,29.85,29.73,7,2,12,0.09
2013-10-20,38,35,33,35,33,27,97,92,76,29.94,29.68,8,2,16,0.29
2013-10-21,39,34,30,28,26,23,87,71,62,29.99,29.94,14,4,21,0.00
2013-10-22,41,34,28,33,30,26,93,82,70,30.07,29.99,7,2,10,0.01
2013-10-23,38,34,32,30,26,22,88,71,55,30.15,30.03,10,3,16,0.00
2013-10-24,44,37,30,34,30,22,93,77,59,30.33,30.15,9,3,15,0.00
2013-10-25,58,43,30,45,36,27,92,76,59,30.33,29.81,10,4,20,0.00
2013-10-26,49,41,33,36,31,29,88,69,59,30.14,29.86,11,5,22,0.00
2013-10-27,58,42,32,38,32,29,87,70,45,30.21,29.83,8,4,20,0.00
2013-10-28,42,34,28,30,24,22,82,68,46,30.48,30.21,10,3,14,0.00
2013-10-29,35,33,30,34,30,25,95,89,80,30.44,30.13,5,1,10,0.08
2013-10-30,44,40,35,44,39,34,100,99,95,30.13,29.71,4,1,7,0.06
2013-10-31,44,40,39,44,39,38,100,96,92,29.71,29.46,7,3,12,0.01
2013-11-1,48,42,36,40,38,34,94,87,69,29.91,29.48,8,3,13,0.00
2013-11-2,51,40,32,38,34,30,94,82,60,30.09,29.90,6,2,12,0.00
2013-11-3,55,45,35,40,36,32,92,72,50,30.09,29.84,14,4,31,0.00
2013-11-4,48,43,35,42,37,30,90,78,66,30.15,29.81,14,4,21,0.04
2013-11-5,39,35,32,30,28,25,91,75,57,30.27,30.09,6,2,9,0.00
2013-11-6,42,35,29,30,26,20,88,71,50,30.17,30.08,9,3,13,0.00
2013-11-7,40,32,26,30,27,25,94,83,59,30.24,30.16,8,1,15,0.00
2013-11-8,42,35,27,39,30,25,94,83,63,30.19,29.62,8,2,14,0.03
2013-11-9,42,39,37,39,33,28,92,78,64,30.24,29.65,18,8,26,0.00
2013-11-10,40,35,31,32,30,26,85,79,68,30.33,30.13,13,3,23,0.00
2013-11-11,35,20,13,27,12,7,77,68,55,30.73,30.18,11,5,20,0.00
2013-11-12,31,21,10,18,11,7,89,68,39,30.75,30.37,8,3,13,0.00
2013-11-13,52,37,23,36,28,16,82,70,52,30.37,29.87,11,5,20,0.00
2013-11-14,54,43,33,40,36,31,94,76,58,29.88,29.78,10,2,15,0.00
2013-11-15,55,42,30,41,36,29,96,80,54,29.85,29.60,8,3,14,0.00
2013-11-16,46,43,39,46,42,37,100,94,76,29.60,29.30,9,2,17,0.20
2013-11-17,46,38,30,46,35,25,100,89,80,29.87,29.32,18,7,27,0.01
2013-11-18,34,28,23,25,22,20,87,77,63,30.24,29.87,16,5,26,0.00
2013-11-19,47,35,22,35,28,19,90,77,58,30.24,29.83,13,4,25,0.00
2013-11-20,47,42,34,36,33,31,94,73,61,30.05,29.83,12,4,24,0.00
2013-11-21,36,27,20,34,21,12,93,80,69,30.55,30.05,11,5,21,0.00
2013-11-22,31,18,8,17,10,2,89,69,37,30.67,30.45,14,5,21,0.00
2013-11-23,18,10,4,6,3,0,86,73,50,30.83,30.64,9,3,16,0.00
2013-11-24,37,23,7,25,14,3,86,68,46,30.66,29.89,15,7,23,0.00
2013-11-25,39,33,28,29,26,21,86,75,62,30.11,29.87,14,7,25,0.00
2013-11-26,28,19,11,21,9,6,82,67,54,30.39,30.11,14,6,23,0.00
2013-11-27,22,16,7,13,10,5,89,76,64,30.39,30.05,6,2,17,0.00
2013-11-28,26,21,12,18,13,9,89,72,57,30.49,30.07,9,2,15,0.00
2013-11-29,32,22,11,22,16,9,90,78,64,30.49,30.09,9,3,17,0.00
2013-11-30,38,28,22,28,23,20,93,81,67,30.20,30.02,6,2,12,0.00
2013-12-1,31,25,19,26,22,18,93,89,80,30.20,29.92,3,0,5,0.00
2013-12-2,35,32,27,33,30,24,97,93,89,29.92,29.59,4,1,9,0.07
2013-12-3,34,33,31,34,33,29,100,98,93,29.83,29.61,7,2,12,0.19
2013-12-4,31,25,10,29,23,8,96,94,89,29.83,29.54,16,5,24,0.00
2013-12-5,10,3,-3,8,0,-7,89,84,81,30.30,29.70,16,8,27,0.00
2013-12-6,2,-4,-8,-5,-9,-12,85,80,72,30.59,30.29,9,4,13,0.00
2013-12-7,2,-6,-12,-6,-11,-16,85,78,68,30.64,30.50,7,2,12,0.00
2013-12-8,10,3,-7,6,-1,-11,89,85,79,30.50,30.02,4,1,8,0.00
2013-12-9,6,-1,-7,3,-6,-11,90,81,72,30.07,29.79,14,4,20,0.00
2013-12-10,10,4,-3,4,-1,-7,87,81,72,30.30,29.75,12,4,20,0.00
2013-12-11,3,-4,-12,-2,-10,-16,82,76,67,30.51,30.24,10,4,15,0.00
2013-12-12,18,11,1,12,6,-3,85,80,72,30.26,30.13,5,1,8,0.00
2013-12-13,16,10,5,11,6,2,86,80,75,30.31,30.13,10,3,16,0.00
2013-12-14,11,5,-3,6,1,-8,87,82,76,30.30,30.10,10,3,15,0.00
2013-12-15,4,0,-3,-5,-7,-9,80,72,62,30.15,30.09,8,2,12,0.00
2013-12-16,31,13,0,27,9,-7,89,84,70,30.09,29.88,10,3,16,0.00
2013-12-17,33,22,5,30,16,2,92,81,69,30.10,29.87,13,6,29,0.00
2013-12-18,35,23,6,26,18,3,90,81,68,30.04,29.64,8,3,15,0.06
2013-12-19,23,14,11,19,9,5,89,81,72,30.12,29.86,9,4,16,0.00
2013-12-20,14,10,4,11,7,1,88,86,82,30.08,29.87,6,2,12,0.00
2013-12-21,15,13,10,12,10,8,92,89,86,30.05,29.86,5,2,9,0.00
2013-12-22,14,10,1,11,6,-3,88,85,79,30.26,30.00,8,4,12,0.00
2013-12-23,1,-5,-15,-3,-10,-20,84,77,66,30.49,30.26,10,4,16,0.00
2013-12-24,11,-2,-20,8,-7,-24,89,79,60,30.44,30.09,8,3,15,0.00
2013-12-25,25,16,11,22,13,8,94,85,72,30.13,30.03,13,4,20,0.00
2013-12-26,23,17,12,19,14,10,93,88,83,30.16,30.05,3,1,5,0.00
2013-12-27,41,31,16,34,28,14,96,89,71,30.15,29.88,11,4,22,0.34
2013-12-28,39,29,12,33,27,7,97,91,77,30.12,29.70,14,4,23,0.11
2013-12-29,12,-5,-13,7,-12,-18,80,71,55,30.35,30.12,12,4,20,0.00
2013-12-30,3,-6,-15,-2,-10,-20,86,81,75,30.24,30.14,4,1,7,0.00
2013-12-31,-2,-8,-11,-8,-13,-16,85,78,65,30.40,30.17,6,1,9,0.00
2014-1-1,1,-4,-10,-9,-11,-15,77,70,58,30.47,30.38,5,2,9,0.00
2014-1-2,2,-6,-13,-10,-14,-17,81,71,54,30.49,30.30,5,1,7,0.00